Time;durP1;ratioP1;P1;durP2;ratioP2;P2;SDS_P1;SDS_P2;PMS_P1;PMS_P2;Temp;Humidity;BMP_temperature;BMP_pressure;BME280_temperature;BME280_humidity;BME280_pressure;Samples;Min_cycle;Max_cycle;Signal;HPM_P1;HPM_P2
2023/12/20 00:02:04;;;;;;;3.67;1.75;;;19.70;72.50;;;;;;5052063;28;20056;-29
2023/12/20 00:04:31;;;;;;;3.15;1.73;;;;;;;;;;5039456;28;20099;-28
2023/12/20 00:06:58;;;;;;;3.50;1.55;;;18.80;71.40;;;;;;5041769;28;20057;-27
2023/12/20 00:09:25;;;;;;;2.55;1.50;;;;;;;;;;5041032;28;20157;-26
2023/12/20 00:11:52;;;;;;;2.60;1.45;;;19.80;71.40;;;;;;5040628;28;20067;-28
2023/12/20 00:14:20;;;;;;;3.03;1.60;;;;;;;;;;5041213;28;20464;-27
2023/12/20 00:16:48;;;;;;;2.78;1.45;;;20.30;71.60;;;;;;5042307;28;20073;-27
2023/12/20 00:19:15;;;;;;;2.40;1.42;;;18.90;70.80;;;;;;5031086;28;20041;-29
2023/12/20 00:21:42;;;;;;;2.55;1.30;;;20.20;70.30;;;;;;5031409;28;20045;-27
2023/12/20 00:24:09;;;;;;;2.95;1.50;;;19.30;70.90;;;;;;5031590;28;20057;-26
2023/12/20 00:26:35;;;;;;;3.47;1.58;;;19.70;51.40;;;;;;5031285;28;20056;-27
2023/12/20 00:29:02;;;;;;;2.20;1.40;;;18.60;70.50;;;;;;5031399;28;20049;-27
2023/12/20 00:31:29;;;;;;;3.97;1.50;;;19.60;71.50;;;;;;5031298;28;20053;-27
2023/12/20 00:33:57;;;;;;;2.85;1.30;;;19.20;66.70;;;;;;5031096;28;20422;-27
2023/12/20 00:36:24;;;;;;;3.20;1.27;;;18.80;67.40;;;;;;5037563;28;20126;-27
2023/12/20 00:38:51;;;;;;;2.53;1.20;;;20.10;71.30;;;;;;5039623;28;20498;-28
2023/12/20 00:41:18;;;;;;;2.72;1.40;;;19.20;66.90;;;;;;5040755;28;20068;-28
2023/12/20 00:43:45;;;;;;;2.85;1.58;;;20.00;71.20;;;;;;5040673;28;20045;-27
2023/12/20 00:46:12;;;;;;;2.70;1.33;;;;;;;;;;5042121;28;20462;-25
2023/12/20 00:48:41;;;;;;;2.30;1.40;;;19.50;70.90;;;;;;5041411;28;20108;-29
2023/12/20 00:51:10;;;;;;;2.53;1.27;;;20.40;60.00;;;;;;5038163;28;20049;-26
2023/12/20 00:53:37;;;;;;;2.22;1.30;;;;;;;;;;5039171;28;20060;-26
2023/12/20 00:56:04;;;;;;;1.73;1.10;;;19.90;72.00;;;;;;5041734;28;20780;-27
2023/12/20 00:58:31;;;;;;;2.65;1.40;;;19.60;70.90;;;;;;5041602;28;20045;-27
2023/12/20 01:00:58;;;;;;;2.65;1.30;;;20.80;71.50;;;;;;5039780;28;20049;-28
2023/12/20 01:03:25;;;;;;;4.65;1.55;;;;;;;;;;5035371;28;20069;-26
2023/12/20 01:05:52;;;;;;;3.17;1.40;;;19.40;70.70;;;;;;5050895;28;20096;-27
2023/12/20 01:08:20;;;;;;;2.38;1.25;;;19.70;56.40;;;;;;5051417;28;20498;-26
2023/12/20 01:10:47;;;;;;;4.97;1.45;;;19.00;60.00;;;;;;5051378;28;20052;-27
2023/12/20 01:13:14;;;;;;;3.28;1.38;;;19.00;70.40;;;;;;5051251;28;20087;-28
2023/12/20 01:15:41;;;;;;;2.53;1.20;;;19.30;52.30;;;;;;5051536;28;20057;-26
2023/12/20 01:18:08;;;;;;;3.63;1.25;;;19.40;70.70;;;;;;5051140;28;20045;-27
2023/12/20 01:20:36;;;;;;;2.58;1.33;;;19.60;51.60;;;;;;5038442;28;20046;-27
2023/12/20 01:23:02;;;;;;;2.85;1.30;;;19.80;71.70;;;;;;5031569;28;20050;-28
2023/12/20 01:25:31;;;;;;;4.00;1.30;;;19.90;58.80;;;;;;5031384;28;20050;-27
2023/12/20 01:27:57;;;;;;;2.55;1.27;;;19.60;64.00;;;;;;5034891;28;20057;-27
2023/12/20 01:30:24;;;;;;;3.05;1.42;;;20.10;71.40;;;;;;5034919;28;20111;-27
2023/12/20 01:32:51;;;;;;;1.63;1.20;;;;;;;;;;5035112;28;20073;-26
2023/12/20 01:35:18;;;;;;;2.30;1.10;;;19.90;70.80;;;;;;5035250;28;20099;-27
2023/12/20 01:37:45;;;;;;;3.28;1.50;;;20.40;71.90;;;;;;5065861;28;20052;-27
2023/12/20 01:40:12;;;;;;;3.55;1.40;;;19.70;70.40;;;;;;5074783;28;20401;-28
2023/12/20 01:42:40;;;;;;;2.17;1.20;;;19.90;70.80;;;;;;5074565;28;20056;-27
2023/12/20 01:45:08;;;;;;;2.20;1.20;;;19.80;51.10;;;;;;5075017;28;20109;-29
2023/12/20 01:47:35;;;;;;;2.75;1.30;;;20.90;71.20;;;;;;5072545;28;20083;-28
2023/12/20 01:50:03;;;;;;;2.22;1.20;;;;;;;;;;5048652;28;20523;-26
2023/12/20 01:52:30;;;;;;;3.03;1.20;;;20.00;57.50;;;;;;5054663;28;20044;-27
2023/12/20 01:55:02;;;;;;;3.72;1.65;;;20.00;70.70;;;;;;5054403;28;20053;-29
2023/12/20 01:57:29;;;;;;;3.05;1.23;;;19.80;52.50;;;;;;5054700;28;20045;-26
2023/12/20 01:59:57;;;;;;;3.03;1.50;;;19.90;51.00;;;;;;5054120;28;20048;-27
2023/12/20 02:02:24;;;;;;;2.58;1.33;;;18.80;51.80;;;;;;5054418;28;20095;-26
2023/12/20 02:04:51;;;;;;;2.53;1.25;;;19.20;68.90;;;;;;5054566;28;20098;-27
2023/12/20 02:07:19;;;;;;;3.28;1.27;;;;;;;;;;5052676;28;20083;-25
2023/12/20 02:09:45;;;;;;;2.50;1.10;;;20.00;70.60;;;;;;5053972;28;20048;-27
2023/12/20 02:12:13;;;;;;;2.90;1.20;;;;;;;;;;5054062;28;20495;-25
2023/12/20 02:14:39;;;;;;;3.33;1.17;;;18.80;69.80;;;;;;5054540;28;20449;-27
2023/12/20 02:17:08;;;;;;;3.03;1.20;;;19.90;70.70;;;;;;5054125;28;20681;-26
2023/12/20 02:19:35;;;;;;;3.05;1.20;;;;;;;;;;5053961;28;20053;-27
2023/12/20 02:22:10;;;;;;;2.03;1.00;;;19.80;71.10;;;;;;5053945;28;20087;-28
2023/12/20 02:24:37;;;;;;;2.42;1.13;;;;;;;;;;5052450;28;20068;-26
2023/12/20 02:27:04;;;;;;;2.65;1.23;;;19.00;70.30;;;;;;5054133;28;20053;-29
2023/12/20 02:29:31;;;;;;;3.45;1.30;;;19.80;51.00;;;;;;5053766;28;20044;-26
2023/12/20 02:31:58;;;;;;;3.30;1.10;;;20.10;70.70;;;;;;5053871;28;20053;-28
2023/12/20 02:34:25;;;;;;;1.92;0.90;;;;;;;;;;5053717;28;20052;-28
2023/12/20 02:36:52;;;;;;;2.90;1.52;;;18.80;69.60;;;;;;5061774;28;20098;-28
2023/12/20 02:39:20;;;;;;;2.97;1.52;;;20.10;70.40;;;;;;5073000;28;20044;-27
2023/12/20 02:41:47;;;;;;;2.15;1.00;;;;;;;;;;5052796;28;20049;-29
2023/12/20 02:44:14;;;;;;;2.10;1.20;;;20.50;70.50;;;;;;5044623;28;20114;-28
2023/12/20 02:46:41;;;;;;;2.50;1.10;;;20.00;70.60;;;;;;5073547;28;20053;-28
2023/12/20 02:49:08;;;;;;;3.22;1.20;;;19.40;69.80;;;;;;5073543;28;20106;-27
2023/12/20 02:51:38;;;;;;;2.85;1.38;;;18.90;69.60;;;;;;5053661;28;20049;-29
2023/12/20 02:54:05;;;;;;;3.00;1.40;;;;;;;;;;5053689;28;20053;-27
2023/12/20 02:56:33;;;;;;;2.45;1.30;;;20.00;50.60;;;;;;5053406;28;20053;-26
2023/12/20 02:59:00;;;;;;;2.00;1.00;;;;;;;;;;5052820;28;20126;-26
2023/12/20 03:01:27;;;;;;;2.22;1.20;;;21.00;71.10;;;;;;5051435;28;20045;-27
2023/12/20 03:03:54;;;;;;;2.65;1.20;;;19.70;61.00;;;;;;5053107;28;20640;-27
2023/12/20 03:06:21;;;;;;;4.38;1.40;;;20.50;71.20;;;;;;5053329;28;20548;-29
2023/12/20 03:08:48;;;;;;;3.78;1.38;;;;;;;;;;5053121;28;20084;-26
2023/12/20 03:11:15;;;;;;;2.08;1.15;;;20.00;70.50;;;;;;5052891;28;20053;-28
2023/12/20 03:13:43;;;;;;;1.58;1.05;;;20.00;50.50;;;;;;5053072;28;20102;-27
2023/12/20 03:16:11;;;;;;;3.25;1.40;;;;;;;;;;5043146;28;20049;-27
2023/12/20 03:18:37;;;;;;;1.92;1.10;;;20.00;70.20;;;;;;5033204;28;20045;-27
2023/12/20 03:21:05;;;;;;;2.08;1.20;;;20.30;70.20;;;;;;5032762;28;20050;-26
2023/12/20 03:23:33;;;;;;;2.55;1.20;;;19.70;70.40;;;;;;5033433;28;20442;-29
2023/12/20 03:26:00;;;;;;;3.40;1.30;;;19.00;70.00;;;;;;5032654;28;20061;-27
2023/12/20 03:28:27;;;;;;;1.80;0.98;;;20.00;50.50;;;;;;5032929;28;20053;-27
2023/12/20 03:30:55;;;;;;;3.35;1.00;;;19.80;56.90;;;;;;5032432;28;20114;-26
2023/12/20 03:33:22;;;;;;;1.98;1.20;;;19.50;70.70;;;;;;5034012;28;20049;-29
2023/12/20 03:35:49;;;;;;;2.75;1.27;;;;;;;;;;5032910;28;20053;-25
2023/12/20 03:38:16;;;;;;;3.08;1.00;;;20.10;70.00;;;;;;5051841;28;20098;-29
2023/12/20 03:40:43;;;;;;;3.50;1.52;;;;;;;;;;5053579;28;20041;-26
2023/12/20 03:43:10;;;;;;;3.58;1.30;;;21.00;60.60;;;;;;5072226;28;20048;-27
2023/12/20 03:45:37;;;;;;;3.17;1.30;;;;;;;;;;5072715;28;20068;-26
2023/12/20 03:48:07;;;;;;;2.50;1.05;;;18.90;69.40;;;;;;5072262;28;20098;-27
2023/12/20 03:50:34;;;;;;;4.40;1.42;;;;;;;;;;5042674;28;20507;-27
2023/12/20 03:53:01;;;;;;;2.72;1.30;;;;;;;;;;5032305;28;20573;-27
2023/12/20 03:55:28;;;;;;;3.40;1.20;;;21.00;56.20;;;;;;5032435;28;20439;-26
2023/12/20 03:57:55;;;;;;;3.20;1.38;;;19.80;69.80;;;;;;5032475;28;20053;-27
2023/12/20 04:00:21;;;;;;;2.95;1.20;;;19.80;70.20;;;;;;5032126;28;20049;-27
2023/12/20 04:02:48;;;;;;;1.98;1.00;;;19.00;69.40;;;;;;5032621;28;20418;-30
2023/12/20 04:05:16;;;;;;;3.22;1.40;;;20.00;70.30;;;;;;5033385;28;20495;-28
2023/12/20 04:07:44;;;;;;;3.97;1.40;;;;;;;;;;5032290;28;20092;-29
2023/12/20 04:10:11;;;;;;;2.65;1.02;;;;;;;;;;5032139;28;20096;-27
2023/12/20 04:12:38;;;;;;;2.67;1.20;;;20.40;70.40;;;;;;5032062;28;20652;-26
2023/12/20 04:15:09;;;;;;;2.47;1.38;;;19.80;65.40;;;;;;5032211;28;20458;-26
2023/12/20 04:17:35;;;;;;;2.97;1.30;;;20.10;53.20;;;;;;5031950;28;20061;-27
2023/12/20 04:20:03;;;;;;;3.05;1.30;;;;;;;;;;5032046;28;20045;-26
2023/12/20 04:22:31;;;;;;;2.60;1.30;;;19.60;70.00;;;;;;5036109;28;20043;-27
2023/12/20 04:24:58;;;;;;;2.45;1.13;;;;;;;;;;5051622;28;20391;-27
2023/12/20 04:27:25;;;;;;;3.58;1.40;;;20.60;66.20;;;;;;5051740;28;20453;-27
2023/12/20 04:29:52;;;;;;;4.88;1.45;;;19.40;70.30;;;;;;5051617;28;20510;-27
2023/12/20 04:32:19;;;;;;;3.58;1.48;;;;;;;;;;5034980;28;20057;-26
2023/12/20 04:34:46;;;;;;;2.65;1.25;;;20.50;70.10;;;;;;5031460;28;20584;-28
2023/12/20 04:37:13;;;;;;;3.90;1.50;;;;;;;;;;5038659;28;20048;-26
2023/12/20 04:39:41;;;;;;;3.53;1.58;;;20.90;70.10;;;;;;5044954;28;20045;-27
2023/12/20 04:42:08;;;;;;;3.47;1.50;;;20.00;69.90;;;;;;5031966;28;20049;-26
2023/12/20 04:44:35;;;;;;;3.75;1.30;;;;;;;;;;5031754;28;20045;-24
2023/12/20 04:47:03;;;;;;;2.65;1.30;;;20.30;70.00;;;;;;5031714;28;20061;-27
2023/12/20 04:49:29;;;;;;;2.80;1.30;;;20.20;60.80;;;;;;5015972;28;20419;-26
2023/12/20 04:51:56;;;;;;;3.05;1.25;;;20.20;70.20;;;;;;5051282;28;20057;-29
2023/12/20 04:54:23;;;;;;;3.92;1.50;;;;;;;;;;5051613;28;20506;-26
2023/12/20 04:56:52;;;;;;;4.15;1.70;;;20.70;70.20;;;;;;5042803;28;20388;-28
2023/12/20 04:59:19;;;;;;;3.25;1.80;;;20.20;70.20;;;;;;5031571;28;20088;-27
2023/12/20 05:01:46;;;;;;;4.68;1.60;;;;;;;;;;5033461;28;20065;-27
2023/12/20 05:04:13;;;;;;;3.55;1.30;;;20.40;70.20;;;;;;5035734;28;20045;-28
2023/12/20 05:06:40;;;;;;;3.10;1.33;;;;;;;;;;5035758;28;20107;-25
2023/12/20 05:09:07;;;;;;;3.95;1.40;;;20.40;54.10;;;;;;5046263;28;20053;-27
2023/12/20 05:11:34;;;;;;;4.63;1.60;;;;;;;;;;5035675;28;20108;-27
2023/12/20 05:14:02;;;;;;;4.53;1.40;;;21.20;70.10;;;;;;5035370;28;20056;-28
2023/12/20 05:16:29;;;;;;;3.50;1.73;;;20.90;70.00;;;;;;5035580;28;20052;-27
2023/12/20 05:18:56;;;;;;;2.65;1.33;;;20.10;69.60;;;;;;5035285;28;20058;-29
2023/12/20 05:21:23;;;;;;;4.18;1.67;;;;;;;;;;5034935;28;20450;-27
2023/12/20 05:23:50;;;;;;;3.20;1.40;;;20.40;69.60;;;;;;5035411;28;20049;-30
2023/12/20 05:26:17;;;;;;;3.55;1.38;;;20.30;59.90;;;;;;5034978;28;20557;-28
2023/12/20 05:28:43;;;;;;;3.15;1.40;;;20.70;70.20;;;;;;5035275;28;20045;-29
2023/12/20 05:31:12;;;;;;;2.63;1.42;;;20.20;50.00;;;;;;5034743;28;20099;-26
2023/12/20 05:33:39;;;;;;;3.03;1.30;;;;;;;;;;5056503;28;20098;-26
2023/12/20 05:36:11;;;;;;;3.63;1.50;;;20.00;69.80;;;;;;5074317;28;20688;-28
2023/12/20 05:38:37;;;;;;;5.03;1.80;;;20.20;69.50;;;;;;5069019;28;20051;-27
2023/12/20 05:41:05;;;;;;;2.42;1.30;;;20.20;70.40;;;;;;5054660;28;20486;-29
2023/12/20 05:43:32;;;;;;;5.25;1.90;;;19.00;68.90;;;;;;5054859;28;20053;-27
2023/12/20 05:45:59;;;;;;;5.30;1.92;;;20.50;55.70;;;;;;5055034;28;20406;-28
2023/12/20 05:48:27;;;;;;;4.50;1.70;;;20.30;50.00;;;;;;5054321;28;20514;-29
2023/12/20 05:50:54;;;;;;;3.88;1.60;;;20.60;70.10;;;;;;5041053;28;20053;-27
2023/12/20 05:53:21;;;;;;;2.20;1.30;;;;;;;;;;5034872;28;20053;-25
2023/12/20 05:55:48;;;;;;;4.25;1.42;;;20.60;68.10;;;;;;5040973;28;20094;-26
2023/12/20 05:58:15;;;;;;;3.45;1.38;;;20.60;70.10;;;;;;5050414;28;20049;-29
2023/12/20 06:00:42;;;;;;;4.07;1.73;;;20.40;69.60;;;;;;5054161;28;20041;-26
2023/12/20 06:03:09;;;;;;;3.90;1.95;;;20.90;70.70;;;;;;5054505;28;20083;-27
2023/12/20 06:05:37;;;;;;;3.28;1.40;;;20.40;50.00;;;;;;5054052;28;20056;-26
2023/12/20 06:08:04;;;;;;;5.43;1.77;;;20.30;49.90;;;;;;5054601;28;20061;-26
2023/12/20 06:10:31;;;;;;;3.92;1.60;;;20.50;70.10;;;;;;5053822;28;20453;-29
2023/12/20 06:12:58;;;;;;;4.13;1.50;;;20.90;51.30;;;;;;5043103;28;20050;-28
2023/12/20 06:15:25;;;;;;;3.75;1.55;;;20.20;69.90;;;;;;5016803;28;20058;-26
2023/12/20 06:17:52;;;;;;;4.30;1.77;;;20.50;57.90;;;;;;5034075;28;20119;-26
2023/12/20 06:20:19;;;;;;;3.65;1.40;;;20.10;69.40;;;;;;5034272;28;20045;-28
2023/12/20 06:22:47;;;;;;;3.35;1.42;;;20.30;49.90;;;;;;5033745;28;20049;-26
2023/12/20 06:25:14;;;;;;;3.10;1.30;;;;;;;;;;5034215;28;20095;-25
2023/12/20 06:27:42;;;;;;;4.20;1.55;;;;;;;;;;5033929;28;20515;-29
2023/12/20 06:30:10;;;;;;;3.38;1.60;;;20.50;55.50;;;;;;5035555;28;20455;-28
2023/12/20 06:32:37;;;;;;;3.58;1.42;;;21.40;55.70;;;;;;5016303;28;20474;-27
2023/12/20 06:35:05;;;;;;;3.20;1.42;;;20.30;49.90;;;;;;5034036;28;20051;-28
2023/12/20 06:37:33;;;;;;;4.05;1.50;;;;;;;;;;5061220;28;20090;-26
2023/12/20 06:40:01;;;;;;;3.45;1.52;;;19.60;69.90;;;;;;5073497;28;20048;-30
2023/12/20 06:42:28;;;;;;;4.00;1.55;;;20.50;69.90;;;;;;5073793;28;20051;-30
2023/12/20 06:44:55;;;;;;;3.55;1.55;;;;;;;;;;5073782;28;20052;-27
2023/12/20 06:47:22;;;;;;;4.00;1.60;;;20.00;69.60;;;;;;5054383;28;20045;-23
2023/12/20 06:49:48;;;;;;;4.22;1.77;;;20.70;69.60;;;;;;5048780;28;20049;-30
2023/12/20 06:52:16;;;;;;;4.28;1.50;;;;;;;;;;5040208;28;20048;-24
2023/12/20 06:54:42;;;;;;;4.30;1.90;;;20.30;69.50;;;;;;5035969;28;20057;-24
2023/12/20 06:57:11;;;;;;;4.72;1.70;;;20.30;49.80;;;;;;5053314;28;20049;-25
2023/12/20 06:59:40;;;;;;;3.90;1.60;;;20.30;68.40;;;;;;5053294;28;20095;-24
2023/12/20 07:02:06;;;;;;;3.90;1.75;;;19.70;69.40;;;;;;5051666;28;20068;-28
2023/12/20 07:04:33;;;;;;;4.80;2.53;;;20.60;50.40;;;;;;5040229;28;20453;-27
2023/12/20 07:07:00;;;;;;;5.78;1.70;;;20.30;69.50;;;;;;5041368;28;20497;-29
2023/12/20 07:09:27;;;;;;;4.47;1.80;;;20.90;70.30;;;;;;5038073;28;20049;-24
2023/12/20 07:11:54;;;;;;;3.88;1.80;;;21.20;67.20;;;;;;5032834;28;20072;-25
2023/12/20 07:14:22;;;;;;;4.32;1.90;;;20.30;49.50;;;;;;5033315;28;20049;-25
2023/12/20 07:16:49;;;;;;;5.05;1.75;;;19.80;69.90;;;;;;5042663;28;20057;-29
2023/12/20 07:19:16;;;;;;;3.65;1.70;;;20.30;53.90;;;;;;5044412;28;20102;-30
2023/12/20 07:21:43;;;;;;;4.78;1.80;;;20.50;69.30;;;;;;5035662;28;20077;-29
2023/12/20 07:24:10;;;;;;;3.95;1.60;;;20.80;69.80;;;;;;5037989;28;20602;-30
2023/12/20 07:26:38;;;;;;;4.72;1.73;;;;;;;;;;5058642;28;20049;-30
2023/12/20 07:29:06;;;;;;;4.80;1.70;;;20.70;70.30;;;;;;5052735;28;20048;-23
2023/12/20 07:31:34;;;;;;;4.18;1.90;;;20.50;69.20;;;;;;5041068;28;20037;-23
2023/12/20 07:34:01;;;;;;;4.13;1.75;;;;;;;;;;5035452;28;20112;-26
2023/12/20 07:36:28;;;;;;;4.53;1.63;;;20.30;53.50;;;;;;5042383;28;20048;-26
2023/12/20 07:38:55;;;;;;;5.07;1.92;;;20.30;69.50;;;;;;5063685;28;20050;-25
2023/12/20 07:41:23;;;;;;;5.70;2.30;;;;;;;;;;5034527;28;20052;-26
2023/12/20 07:43:50;;;;;;;4.82;1.70;;;20.60;70.10;;;;;;5041232;28;20187;-25
2023/12/20 07:46:18;;;;;;;4.50;1.58;;;20.60;64.60;;;;;;5041495;28;20510;-27
2023/12/20 07:48:46;;;;;;;3.40;1.45;;;20.30;49.60;;;;;;5041308;28;20049;-26
2023/12/20 07:51:13;;;;;;;4.82;1.98;;;20.90;50.60;;;;;;5031684;28;20103;-25
2023/12/20 07:53:40;;;;;;;5.32;1.80;;;20.10;69.10;;;;;;5031987;28;20052;-24
2023/12/20 07:56:15;;;;;;;5.57;2.00;;;19.90;69.40;;;;;;5032036;28;20049;-25
2023/12/20 07:58:42;;;;;;;5.13;1.95;;;20.70;59.10;;;;;;5042291;28;20077;-25
2023/12/20 08:01:09;;;;;;;3.45;1.50;;;;;;;;;;5040198;28;20053;-25
2023/12/20 08:03:36;;;;;;;4.32;1.80;;;20.20;69.10;;;;;;5042411;28;20056;-25
2023/12/20 08:06:04;;;;;;;5.30;1.77;;;20.70;69.90;;;;;;5042053;28;20053;-24
2023/12/20 08:08:31;;;;;;;3.17;1.50;;;20.10;51.70;;;;;;5040593;28;20045;-26
2023/12/20 08:11:00;;;;;;;4.40;1.70;;;20.20;69.10;;;;;;5041895;28;20045;-25
2023/12/20 08:13:27;;;;;;;4.68;1.90;;;20.40;69.30;;;;;;5042328;28;20506;-25
2023/12/20 08:15:54;;;;;;;4.60;1.75;;;21.10;55.40;;;;;;5031402;28;20521;-25
2023/12/20 08:18:21;;;;;;;4.13;1.77;;;19.50;60.40;;;;;;5031768;28;20103;-24
2023/12/20 08:20:48;;;;;;;4.25;1.85;;;;;;;;;;5031372;28;20471;-26
2023/12/20 08:23:16;;;;;;;6.28;2.08;;;19.10;68.60;;;;;;5041700;28;20037;-30
2023/12/20 08:25:43;;;;;;;6.05;1.92;;;20.50;70.20;;;;;;5041423;28;20047;-29
2023/12/20 08:28:10;;;;;;;3.50;1.80;;;19.90;51.30;;;;;;5042357;28;20048;-31
2023/12/20 08:30:37;;;;;;;4.80;1.95;;;20.00;69.40;;;;;;5040816;28;20159;-29
2023/12/20 08:33:04;;;;;;;5.22;1.77;;;20.60;69.40;;;;;;5041253;28;20596;-33
2023/12/20 08:35:31;;;;;;;3.67;1.90;;;20.90;69.80;;;;;;5042026;28;20047;-29
2023/12/20 08:37:58;;;;;;;4.28;1.92;;;;;;;;;;5044413;28;20053;-31
2023/12/20 08:40:26;;;;;;;4.93;1.75;;;19.10;63.10;;;;;;5039810;28;20045;-31
2023/12/20 08:42:54;;;;;;;5.40;1.65;;;;;;;;;;5042959;28;20494;-28
2023/12/20 08:45:21;;;;;;;5.38;1.80;;;19.60;68.70;;;;;;5045816;28;20084;-24
2023/12/20 08:47:48;;;;;;;5.47;1.95;;;20.30;69.30;;;;;;5051425;28;20107;-24
2023/12/20 08:50:15;;;;;;;4.75;1.77;;;19.20;68.60;;;;;;5042986;28;20041;-24
2023/12/20 08:52:42;;;;;;;5.15;1.80;;;19.90;69.20;;;;;;5031817;28;20465;-23
2023/12/20 08:55:09;;;;;;;4.80;2.08;;;20.30;49.70;;;;;;5031600;28;20453;-26
2023/12/20 08:57:37;;;;;;;5.95;2.13;;;20.00;70.00;;;;;;5031247;28;20049;-25
2023/12/20 09:00:07;;;;;;;4.95;1.95;;;20.20;69.30;;;;;;5031274;28;20511;-23
2023/12/20 09:02:35;;;;;;;6.18;2.00;;;20.20;70.00;;;;;;5031296;28;20050;-24
2023/12/20 09:05:03;;;;;;;5.47;2.03;;;20.90;70.00;;;;;;5031496;28;20052;-24
2023/12/20 09:07:31;;;;;;;7.88;2.42;;;;;;;;;;5031038;28;20057;-26
2023/12/20 09:09:58;;;;;;;3.42;1.80;;;21.40;69.80;;;;;;5031766;28;20064;-28
2023/12/20 09:12:25;;;;;;;6.60;2.10;;;;;;;;;;5031266;28;20556;-26
2023/12/20 09:14:54;;;;;;;4.53;1.83;;;20.20;69.40;;;;;;5031609;28;20053;-26
2023/12/20 09:17:22;;;;;;;4.70;1.73;;;20.20;66.50;;;;;;5031115;28;20104;-27
2023/12/20 09:19:49;;;;;;;6.38;1.95;;;;;;;;;;5050937;28;20059;-26
2023/12/20 09:22:17;;;;;;;3.90;1.67;;;21.20;69.90;;;;;;5050670;28;20049;-28
2023/12/20 09:24:44;;;;;;;2.65;1.52;;;21.00;65.00;;;;;;5051179;28;20518;-30
2023/12/20 09:27:11;;;;;;;3.75;1.60;;;20.20;68.90;;;;;;5051156;28;20747;-30
2023/12/20 09:29:38;;;;;;;3.90;1.50;;;20.80;66.00;;;;;;5051000;28;20053;-26
2023/12/20 09:32:07;;;;;;;3.75;1.42;;;20.10;69.30;;;;;;5051177;28;20056;-27
2023/12/20 09:34:34;;;;;;;3.97;1.73;;;20.20;68.50;;;;;;5051112;28;20052;-31
2023/12/20 09:37:02;;;;;;;2.97;1.40;;;20.70;69.70;;;;;;5060398;28;20049;-29
2023/12/20 09:39:31;;;;;;;4.82;1.55;;;;;;;;;;5041238;28;20040;-25
2023/12/20 09:42:01;;;;;;;5.30;1.50;;;20.50;49.50;;;;;;5040348;28;20041;-25
2023/12/20 09:44:28;;;;;;;3.70;1.48;;;20.10;60.50;;;;;;5040928;28;20119;-25
2023/12/20 09:46:56;;;;;;;4.85;1.77;;;20.80;69.60;;;;;;5040483;28;20056;-23
2023/12/20 09:49:24;;;;;;;2.15;1.30;;;20.60;61.60;;;;;;5034429;28;20111;-24
2023/12/20 09:51:51;;;;;;;3.17;1.58;;;20.60;68.70;;;;;;5033696;28;20096;-25
2023/12/20 09:54:19;;;;;;;2.90;1.38;;;20.60;49.70;;;;;;5034330;28;20049;-26
2023/12/20 09:56:46;;;;;;;3.60;1.63;;;19.60;68.70;;;;;;5034071;28;20132;-27
2023/12/20 09:59:13;;;;;;;2.83;1.42;;;20.60;62.10;;;;;;5034529;28;20045;-26
2023/12/20 10:01:40;;;;;;;3.78;1.63;;;20.60;69.30;;;;;;5034122;28;20038;-28
2023/12/20 10:04:09;;;;;;;4.97;1.60;;;20.30;69.00;;;;;;5033695;28;20498;-25
2023/12/20 10:06:37;;;;;;;2.90;1.35;;;20.20;69.00;;;;;;5034243;28;20069;-24
2023/12/20 10:09:05;;;;;;;2.47;1.23;;;20.40;49.50;;;;;;5033916;28;20512;-24
2023/12/20 10:11:32;;;;;;;2.80;1.20;;;;;;;;;;5033925;28;20407;-27
2023/12/20 10:14:00;;;;;;;2.63;1.30;;;20.40;60.20;;;;;;5045270;28;20052;-25
2023/12/20 10:16:27;;;;;;;2.92;1.30;;;20.20;62.80;;;;;;5043329;28;20069;-30
2023/12/20 10:18:54;;;;;;;2.53;1.30;;;20.30;69.00;;;;;;5044457;28;20092;-28
2023/12/20 10:21:22;;;;;;;2.80;1.20;;;;;;;;;;5042312;28;20041;-26
2023/12/20 10:23:50;;;;;;;2.42;1.20;;;20.00;68.90;;;;;;5043751;28;20045;-24
2023/12/20 10:26:20;;;;;;;1.55;1.10;;;20.40;49.50;;;;;;5044607;28;20053;-25
2023/12/20 10:28:48;;;;;;;2.15;1.13;;;;;;;;;;5043200;28;20096;-27
2023/12/20 10:31:27;;;;;;;2.38;1.20;;;21.00;69.80;;;;;;5042480;28;20045;-25
2023/12/20 10:33:54;;;;;;;2.00;1.00;;;20.00;56.70;;;;;;5033836;28;20180;-26
2023/12/20 10:36:21;;;;;;;2.17;1.10;;;20.70;69.40;;;;;;5040975;28;20045;-23
2023/12/20 10:38:49;;;;;;;2.28;1.13;;;21.00;60.40;;;;;;5073996;28;20447;-26
2023/12/20 10:41:17;;;;;;;2.03;1.05;;;20.00;65.80;;;;;;5073411;28;20048;-29
2023/12/20 10:43:44;;;;;;;2.47;0.95;;;;;;;;;;5073852;28;20080;-25
2023/12/20 10:46:11;;;;;;;3.20;1.20;;;20.00;68.90;;;;;;5073476;28;20090;-23
2023/12/20 10:48:38;;;;;;;1.88;1.08;;;;;;;;;;5073649;28;20052;-25
2023/12/20 10:51:06;;;;;;;2.53;1.02;;;;;;;;;;5058052;28;20053;-26
2023/12/20 10:53:32;;;;;;;1.55;0.80;;;19.50;60.40;;;;;;5053747;28;20045;-25
2023/12/20 10:56:01;;;;;;;2.28;1.10;;;21.50;69.40;;;;;;5053901;28;20053;-33
2023/12/20 10:58:28;;;;;;;3.03;0.90;;;;;;;;;;5052766;28;20048;-25
2023/12/20 11:00:59;;;;;;;2.10;1.10;;;20.90;69.70;;;;;;5053184;28;20115;-25
2023/12/20 11:03:26;;;;;;;1.63;0.90;;;19.80;69.10;;;;;;5053342;28;20047;-32
2023/12/20 11:05:57;;;;;;;1.75;0.90;;;20.60;65.00;;;;;;5053293;28;20049;-29
2023/12/20 11:08:29;;;;;;;0.80;0.70;;;19.90;69.10;;;;;;5053354;28;20053;-27
2023/12/20 11:10:59;;;;;;;1.95;1.10;;;20.30;68.50;;;;;;5062115;28;20426;-25
2023/12/20 11:13:32;;;;;;;1.33;0.90;;;19.80;68.50;;;;;;5072876;28;20048;-24
2023/12/20 11:15:59;;;;;;;1.73;0.98;;;20.50;55.10;;;;;;5073224;28;20102;-29
2023/12/20 11:18:30;;;;;;;1.83;0.75;;;20.60;49.10;;;;;;5073072;28;20044;-26
2023/12/20 11:20:57;;;;;;;1.23;0.70;;;;;;;;;;5032932;28;20049;-27
2023/12/20 11:23:24;;;;;;;1.50;0.80;;;19.90;68.50;;;;;;5033007;28;20103;-27
2023/12/20 11:25:53;;;;;;;1.45;0.90;;;19.80;68.40;;;;;;5032789;28;20061;-30
2023/12/20 11:28:22;;;;;;;1.40;0.70;;;21.40;69.00;;;;;;5030199;28;20048;-31
2023/12/20 11:30:52;;;;;;;2.38;1.00;;;20.60;49.10;;;;;;5032348;28;20056;-30
2023/12/20 11:33:22;;;;;;;1.58;0.90;;;21.70;69.50;;;;;;5032436;28;20053;-31
2023/12/20 11:35:49;;;;;;;3.50;1.15;;;20.20;68.40;;;;;;5032337;28;20049;-32
2023/12/20 11:38:16;;;;;;;3.25;1.00;;;;;;;;;;5071871;28;20118;-26
2023/12/20 11:40:43;;;;;;;2.45;0.90;;;21.00;68.70;;;;;;5072022;28;20490;-30
2023/12/20 11:43:10;;;;;;;1.50;0.90;;;20.40;61.80;;;;;;5072479;28;20128;-31
2023/12/20 11:45:37;;;;;;;3.50;1.20;;;20.60;70.80;;;;;;5072521;28;20049;-31
2023/12/20 11:48:06;;;;;;;3.20;1.08;;;20.70;49.10;;;;;;5072152;28;20128;-30
2023/12/20 11:50:33;;;;;;;6.15;1.30;;;20.50;68.40;;;;;;5061115;28;20103;-27
2023/12/20 11:53:00;;;;;;;2.42;1.10;;;;;;;;;;5051791;28;20053;-26
2023/12/20 11:55:27;;;;;;;1.85;0.90;;;20.90;69.00;;;;;;5052417;28;20052;-27
2023/12/20 11:57:54;;;;;;;3.20;1.10;;;;;;;;;;5051983;28;20053;-25
2023/12/20 12:00:21;;;;;;;4.57;1.10;;;;;;;;;;5051881;28;20057;-29
2023/12/20 12:02:58;;;;;;;3.00;1.10;;;20.50;49.60;;;;;;5051805;28;20433;-26
2023/12/20 12:05:27;;;;;;;2.47;1.00;;;19.80;55.50;;;;;;5052169;28;20041;-23
2023/12/20 12:07:54;;;;;;;4.85;1.20;;;20.90;68.70;;;;;;5051927;28;20102;-28
2023/12/20 12:10:20;;;;;;;1.42;0.77;;;19.40;48.70;;;;;;5051227;28;20053;-26
2023/12/20 12:12:47;;;;;;;4.18;1.10;;;20.60;68.40;;;;;;5051886;28;20449;-27
2023/12/20 12:15:15;;;;;;;2.80;1.10;;;20.40;69.10;;;;;;5051898;28;20049;-32
2023/12/20 12:17:42;;;;;;;4.22;1.15;;;;;;;;;;5051716;28;20095;-27
2023/12/20 12:20:10;;;;;;;2.67;1.15;;;20.00;64.00;;;;;;5037850;28;20481;-24
2023/12/20 12:22:38;;;;;;;2.30;0.93;;;20.70;49.20;;;;;;5036488;28;20725;-26
2023/12/20 12:25:11;;;;;;;1.55;0.80;;;19.80;49.20;;;;;;5031248;28;20103;-25
2023/12/20 12:27:39;;;;;;;1.83;0.98;;;21.60;69.20;;;;;;5031707;28;20065;-32
2023/12/20 12:30:07;;;;;;;2.03;0.93;;;20.20;68.40;;;;;;5041889;28;20149;-25
2023/12/20 12:32:34;;;;;;;1.92;1.00;;;20.00;68.30;;;;;;5039999;28;20084;-25
2023/12/20 12:35:02;;;;;;;2.22;0.80;;;20.60;50.80;;;;;;5041409;28;20060;-26
2023/12/20 12:37:30;;;;;;;1.30;0.90;;;;;;;;;;5044471;28;20052;-27
2023/12/20 12:39:58;;;;;;;2.10;0.85;;;20.90;68.80;;;;;;5031930;28;20045;-28
2023/12/20 12:42:28;;;;;;;2.45;1.00;;;20.80;68.70;;;;;;5030945;28;20050;-30
2023/12/20 12:44:56;;;;;;;1.75;1.00;;;;;;;;;;5031567;28;20103;-26
2023/12/20 12:47:22;;;;;;;3.45;1.15;;;20.40;69.50;;;;;;5031251;28;20053;-29
2023/12/20 12:49:50;;;;;;;2.90;1.30;;;20.50;49.10;;;;;;5036022;28;20056;-26
2023/12/20 12:52:17;;;;;;;1.98;1.00;;;20.50;68.60;;;;;;5051293;28;20106;-29
2023/12/20 12:54:44;;;;;;;1.90;0.90;;;20.70;69.20;;;;;;5040237;28;20465;-31
2023/12/20 12:57:13;;;;;;;2.38;0.95;;;20.70;69.30;;;;;;5031537;28;20140;-33
2023/12/20 12:59:39;;;;;;;3.10;1.23;;;20.70;68.40;;;;;;5030834;28;20053;-29
2023/12/20 13:02:06;;;;;;;3.97;1.10;;;21.00;66.10;;;;;;5031398;28;20108;-26
2023/12/20 13:04:34;;;;;;;2.22;1.27;;;;;;;;;;5059963;28;20041;-27
2023/12/20 13:07:01;;;;;;;4.80;1.20;;;20.90;68.70;;;;;;5036980;28;20119;-27
2023/12/20 13:09:27;;;;;;;3.03;1.08;;;20.90;54.90;;;;;;5031280;28;20045;-29
2023/12/20 13:11:54;;;;;;;1.50;0.90;;;20.50;50.80;;;;;;5031451;28;20111;-25